sensor_id;sensor_type;location;lat;lon;timestamp;pressure;altitude;pressure_sealevel;temperature;humidity
27294;BME280;14785;52.556;13.430;2022-12-01T00:02:04;102006.66;;;5.16;100.00
27294;BME280;14785;52.556;13.430;2022-12-01T00:04:30;102006.88;;;4.98;100.00
27294;BME280;14785;52.556;13.430;2022-12-01T00:06:55;102002.13;;;5.48;100.00
27294;BME280;14785;52.556;13.430;2022-12-01T00:09:20;101998.94;;;5.43;100.00
27294;BME280;14785;52.556;13.430;2022-12-01T00:12:05;101994.78;;;5.53;100.00
27294;BME280;14785;52.556;13.430;2022-12-01T00:14:30;101997.53;;;5.51;100.00
27294;BME280;14785;52.556;13.430;2022-12-01T00:16:56;101992.19;;;5.67;100.00
27294;BME280;14785;52.556;13.430;2022-12-01T00:19:25;101989.88;;;5.91;100.00
27294;BME280;14785;52.556;13.430;2022-12-01T00:21:51;101996.88;;;5.62;100.00
27294;BME280;14785;52.556;13.430;2022-12-01T00:24:17;101995.94;;;5.63;100.00
27294;BME280;14785;52.556;13.430;2022-12-01T00:26:42;102005.28;;;5.68;100.00
27294;BME280;14785;52.556;13.430;2022-12-01T00:29:08;102004.66;;;5.49;100.00
27294;BME280;14785;52.556;13.430;2022-12-01T00:31:35;101998.78;;;5.74;100.00
27294;BME280;14785;52.556;13.430;2022-12-01T00:34:00;101996.84;;;5.04;100.00
27294;BME280;14785;52.556;13.430;2022-12-01T00:36:26;101995.28;;;5.59;100.00
27294;BME280;14785;52.556;13.430;2022-12-01T00:38:53;102000.09;;;5.81;100.00
27294;BME280;14785;52.556;13.430;2022-12-01T00:41:19;101994.09;;;5.93;100.00
27294;BME280;14785;52.556;13.430;2022-12-01T00:43:45;101995.03;;;5.05;100.00
27294;BME280;14785;52.556;13.430;2022-12-01T00:46:11;102001.63;;;4.98;100.00
27294;BME280;14785;52.556;13.430;2022-12-01T00:48:36;102003.88;;;4.74;100.00
27294;BME280;14785;52.556;13.430;2022-12-01T00:51:01;102003.69;;;4.46;100.00
27294;BME280;14785;52.556;13.430;2022-12-01T00:53:27;101999.44;;;4.44;100.00
27294;BME280;14785;52.556;13.430;2022-12-01T00:55:53;102004.03;;;4.25;100.00
27294;BME280;14785;52.556;13.430;2022-12-01T00:58:21;102002.09;;;3.95;100.00
27294;BME280;14785;52.556;13.430;2022-12-01T01:00:46;102011.25;;;3.88;100.00
27294;BME280;14785;52.556;13.430;2022-12-01T01:03:14;102018.31;;;3.88;100.00
27294;BME280;14785;52.556;13.430;2022-12-01T01:05:41;102013.50;;;4.12;100.00
27294;BME280;14785;52.556;13.430;2022-12-01T01:08:12;102018.59;;;4.15;100.00
27294;BME280;14785;52.556;13.430;2022-12-01T01:10:43;102018.28;;;4.21;100.00
27294;BME280;14785;52.556;13.430;2022-12-01T01:13:10;102016.81;;;4.00;100.00
27294;BME280;14785;52.556;13.430;2022-12-01T01:15:36;102022.38;;;4.42;100.00
27294;BME280;14785;52.556;13.430;2022-12-01T01:18:01;102023.22;;;4.73;100.00
27294;BME280;14785;52.556;13.430;2022-12-01T01:20:27;102028.31;;;5.07;100.00
27294;BME280;14785;52.556;13.430;2022-12-01T01:22:53;102022.97;;;4.78;100.00
27294;BME280;14785;52.556;13.430;2022-12-01T01:25:18;102024.94;;;5.49;100.00
27294;BME280;14785;52.556;13.430;2022-12-01T01:27:43;102023.41;;;4.86;100.00
27294;BME280;14785;52.556;13.430;2022-12-01T01:30:09;102028.44;;;4.59;100.00
27294;BME280;14785;52.556;13.430;2022-12-01T01:32:35;102019.50;;;4.31;100.00
27294;BME280;14785;52.556;13.430;2022-12-01T01:35:01;102018.72;;;4.60;100.00
27294;BME280;14785;52.556;13.430;2022-12-01T01:37:26;102015.75;;;4.35;100.00
27294;BME280;14785;52.556;13.430;2022-12-01T01:39:51;102023.72;;;4.18;100.00
27294;BME280;14785;52.556;13.430;2022-12-01T01:42:18;102018.47;;;4.80;100.00
27294;BME280;14785;52.556;13.430;2022-12-01T01:47:19;102021.94;;;4.96;100.00
27294;BME280;14785;52.556;13.430;2022-12-01T01:49:47;102018.84;;;5.33;100.00
27294;BME280;14785;52.556;13.430;2022-12-01T01:52:14;102019.00;;;4.55;100.00
27294;BME280;14785;52.556;13.430;2022-12-01T01:54:43;102026.63;;;4.60;100.00
27294;BME280;14785;52.556;13.430;2022-12-01T01:57:11;102027.06;;;4.68;100.00
27294;BME280;14785;52.556;13.430;2022-12-01T01:59:42;102022.78;;;4.19;100.00
27294;BME280;14785;52.556;13.430;2022-12-01T02:02:11;102021.84;;;4.04;100.00
27294;BME280;14785;52.556;13.430;2022-12-01T02:04:40;102024.00;;;4.29;100.00
27294;BME280;14785;52.556;13.430;2022-12-01T02:07:07;102022.41;;;4.57;100.00
27294;BME280;14785;52.556;13.430;2022-12-01T02:09:32;102024.09;;;4.43;100.00
27294;BME280;14785;52.556;13.430;2022-12-01T02:13:02;102021.38;;;4.60;100.00
27294;BME280;14785;52.556;13.430;2022-12-01T02:15:24;102007.88;;;5.11;100.00
27294;BME280;14785;52.556;13.430;2022-12-01T02:18:33;102005.38;;;4.63;100.00
27294;BME280;14785;52.556;13.430;2022-12-01T02:26:41;102010.13;;;4.87;100.00
27294;BME280;14785;52.556;13.430;2022-12-01T02:32:27;102000.56;;;4.40;100.00
27294;BME280;14785;52.556;13.430;2022-12-01T02:37:32;101998.09;;;4.37;100.00
27294;BME280;14785;52.556;13.430;2022-12-01T02:42:50;102005.56;;;4.60;100.00
27294;BME280;14785;52.556;13.430;2022-12-01T02:48:22;101998.91;;;4.37;100.00
27294;BME280;14785;52.556;13.430;2022-12-01T02:50:51;101995.13;;;4.43;100.00
27294;BME280;14785;52.556;13.430;2022-12-01T02:53:18;101999.69;;;4.24;100.00
27294;BME280;14785;52.556;13.430;2022-12-01T02:55:47;101997.50;;;3.83;100.00
27294;BME280;14785;52.556;13.430;2022-12-01T02:58:13;101998.06;;;4.21;100.00
27294;BME280;14785;52.556;13.430;2022-12-01T03:00:42;101992.50;;;4.43;100.00
27294;BME280;14785;52.556;13.430;2022-12-01T03:08:33;102007.09;;;3.84;100.00
27294;BME280;14785;52.556;13.430;2022-12-01T03:11:11;102008.22;;;3.63;100.00
27294;BME280;14785;52.556;13.430;2022-12-01T03:14:34;102005.72;;;4.57;100.00
27294;BME280;14785;52.556;13.430;2022-12-01T03:17:07;102002.84;;;4.77;100.00
27294;BME280;14785;52.556;13.430;2022-12-01T03:19:40;101998.69;;;4.57;100.00
27294;BME280;14785;52.556;13.430;2022-12-01T03:22:12;101999.28;;;4.62;100.00
27294;BME280;14785;52.556;13.430;2022-12-01T03:24:40;102001.06;;;3.82;100.00
27294;BME280;14785;52.556;13.430;2022-12-01T03:27:08;101996.69;;;3.98;100.00
27294;BME280;14785;52.556;13.430;2022-12-01T03:29:38;102000.78;;;4.04;100.00
27294;BME280;14785;52.556;13.430;2022-12-01T03:35:32;102001.38;;;3.76;100.00
27294;BME280;14785;52.556;13.430;2022-12-01T03:38:10;101999.63;;;3.60;100.00
27294;BME280;14785;52.556;13.430;2022-12-01T03:40:37;101996.16;;;3.92;100.00
27294;BME280;14785;52.556;13.430;2022-12-01T03:43:09;101994.53;;;3.89;100.00
27294;BME280;14785;52.556;13.430;2022-12-01T03:45:51;102000.19;;;3.82;100.00
27294;BME280;14785;52.556;13.430;2022-12-01T03:48:20;101998.75;;;3.76;100.00
27294;BME280;14785;52.556;13.430;2022-12-01T03:53:39;102007.41;;;4.27;100.00
27294;BME280;14785;52.556;13.430;2022-12-01T03:56:08;102008.28;;;4.74;100.00
27294;BME280;14785;52.556;13.430;2022-12-01T03:58:42;102005.38;;;4.94;100.00
27294;BME280;14785;52.556;13.430;2022-12-01T04:01:10;101999.25;;;4.16;100.00
27294;BME280;14785;52.556;13.430;2022-12-01T04:03:36;102005.88;;;4.23;100.00
27294;BME280;14785;52.556;13.430;2022-12-01T04:06:02;102016.50;;;4.06;100.00
27294;BME280;14785;52.556;13.430;2022-12-01T04:08:27;102004.53;;;4.16;100.00
27294;BME280;14785;52.556;13.430;2022-12-01T04:10:55;102009.25;;;3.93;100.00
27294;BME280;14785;52.556;13.430;2022-12-01T04:13:20;102017.34;;;3.56;100.00
27294;BME280;14785;52.556;13.430;2022-12-01T04:15:51;102019.66;;;3.62;100.00
27294;BME280;14785;52.556;13.430;2022-12-01T04:18:18;102013.72;;;3.59;100.00
27294;BME280;14785;52.556;13.430;2022-12-01T04:20:47;102025.03;;;3.93;100.00
27294;BME280;14785;52.556;13.430;2022-12-01T04:23:12;102021.41;;;3.79;100.00
27294;BME280;14785;52.556;13.430;2022-12-01T04:26:00;102021.78;;;3.88;100.00
27294;BME280;14785;52.556;13.430;2022-12-01T04:28:26;102022.00;;;4.01;100.00
27294;BME280;14785;52.556;13.430;2022-12-01T04:30:51;102010.78;;;4.13;100.00
27294;BME280;14785;52.556;13.430;2022-12-01T04:33:17;102008.25;;;4.12;100.00
27294;BME280;14785;52.556;13.430;2022-12-01T04:35:42;102015.25;;;3.80;100.00
27294;BME280;14785;52.556;13.430;2022-12-01T04:38:07;102020.03;;;3.72;100.00
27294;BME280;14785;52.556;13.430;2022-12-01T04:40:33;102025.22;;;3.90;100.00
27294;BME280;14785;52.556;13.430;2022-12-01T04:42:58;102022.97;;;4.16;100.00
27294;BME280;14785;52.556;13.430;2022-12-01T04:45:24;102024.88;;;3.97;100.00
27294;BME280;14785;52.556;13.430;2022-12-01T04:47:51;102027.41;;;3.31;100.00
27294;BME280;14785;52.556;13.430;2022-12-01T04:50:17;102026.78;;;3.26;100.00
27294;BME280;14785;52.556;13.430;2022-12-01T04:52:42;102027.31;;;3.67;100.00
27294;BME280;14785;52.556;13.430;2022-12-01T04:55:08;102029.06;;;3.83;100.00
27294;BME280;14785;52.556;13.430;2022-12-01T04:57:34;102027.44;;;4.14;100.00
27294;BME280;14785;52.556;13.430;2022-12-01T05:00:00;102029.13;;;4.15;100.00
27294;BME280;14785;52.556;13.430;2022-12-01T05:02:25;102035.75;;;3.73;100.00
27294;BME280;14785;52.556;13.430;2022-12-01T05:04:50;102022.19;;;4.14;100.00
27294;BME280;14785;52.556;13.430;2022-12-01T05:07:16;102028.16;;;4.33;100.00
27294;BME280;14785;52.556;13.430;2022-12-01T05:09:42;102037.00;;;4.63;100.00
27294;BME280;14785;52.556;13.430;2022-12-01T05:12:07;102032.25;;;4.85;100.00
27294;BME280;14785;52.556;13.430;2022-12-01T05:14:33;102028.47;;;4.11;100.00
27294;BME280;14785;52.556;13.430;2022-12-01T05:16:58;102031.44;;;3.55;100.00
27294;BME280;14785;52.556;13.430;2022-12-01T05:19:25;102039.00;;;3.61;100.00
27294;BME280;14785;52.556;13.430;2022-12-01T05:22:08;102025.94;;;4.10;100.00
27294;BME280;14785;52.556;13.430;2022-12-01T05:24:34;102040.69;;;3.97;100.00
27294;BME280;14785;52.556;13.430;2022-12-01T05:26:59;102047.38;;;3.52;100.00
27294;BME280;14785;52.556;13.430;2022-12-01T05:29:25;102040.03;;;3.59;100.00
27294;BME280;14785;52.556;13.430;2022-12-01T05:31:50;102038.06;;;3.79;100.00
27294;BME280;14785;52.556;13.430;2022-12-01T05:34:16;102043.28;;;4.45;100.00
27294;BME280;14785;52.556;13.430;2022-12-01T05:36:41;102048.13;;;3.71;100.00
27294;BME280;14785;52.556;13.430;2022-12-01T05:39:07;102042.69;;;3.91;100.00
27294;BME280;14785;52.556;13.430;2022-12-01T05:41:34;102051.25;;;3.45;100.00
27294;BME280;14785;52.556;13.430;2022-12-01T05:43:59;102051.59;;;4.22;100.00
27294;BME280;14785;52.556;13.430;2022-12-01T05:46:25;102050.25;;;4.30;100.00
27294;BME280;14785;52.556;13.430;2022-12-01T05:48:50;102048.34;;;4.17;100.00
27294;BME280;14785;52.556;13.430;2022-12-01T05:51:16;102061.84;;;3.61;100.00
27294;BME280;14785;52.556;13.430;2022-12-01T05:53:42;102059.22;;;4.11;100.00
27294;BME280;14785;52.556;13.430;2022-12-01T05:56:08;102061.31;;;4.68;100.00
27294;BME280;14785;52.556;13.430;2022-12-01T05:58:34;102057.69;;;4.07;100.00
27294;BME280;14785;52.556;13.430;2022-12-01T06:00:59;102052.38;;;4.39;100.00
27294;BME280;14785;52.556;13.430;2022-12-01T06:03:25;102048.88;;;4.39;100.00
27294;BME280;14785;52.556;13.430;2022-12-01T06:05:51;102051.91;;;4.64;100.00
27294;BME280;14785;52.556;13.430;2022-12-01T06:08:16;102048.38;;;4.48;100.00
27294;BME280;14785;52.556;13.430;2022-12-01T06:10:42;102053.94;;;4.59;100.00
27294;BME280;14785;52.556;13.430;2022-12-01T06:13:07;102055.16;;;4.21;100.00
27294;BME280;14785;52.556;13.430;2022-12-01T06:15:33;102051.34;;;4.42;100.00
27294;BME280;14785;52.556;13.430;2022-12-01T06:17:58;102053.22;;;3.91;100.00
27294;BME280;14785;52.556;13.430;2022-12-01T06:20:24;102054.81;;;4.27;100.00
27294;BME280;14785;52.556;13.430;2022-12-01T06:22:49;102058.53;;;4.71;100.00
27294;BME280;14785;52.556;13.430;2022-12-01T06:25:14;102053.94;;;4.11;100.00
27294;BME280;14785;52.556;13.430;2022-12-01T06:27:40;102052.78;;;3.66;100.00
27294;BME280;14785;52.556;13.430;2022-12-01T06:30:06;102062.69;;;3.78;100.00
27294;BME280;14785;52.556;13.430;2022-12-01T06:32:31;102064.63;;;3.58;100.00
27294;BME280;14785;52.556;13.430;2022-12-01T06:34:57;102058.34;;;3.77;100.00
27294;BME280;14785;52.556;13.430;2022-12-01T06:37:22;102067.47;;;3.70;100.00
27294;BME280;14785;52.556;13.430;2022-12-01T06:39:48;102060.53;;;3.52;100.00
27294;BME280;14785;52.556;13.430;2022-12-01T06:42:13;102074.47;;;3.54;100.00
27294;BME280;14785;52.556;13.430;2022-12-01T06:44:39;102069.50;;;3.48;100.00
27294;BME280;14785;52.556;13.430;2022-12-01T06:47:05;102075.47;;;3.69;100.00
27294;BME280;14785;52.556;13.430;2022-12-01T06:49:32;102087.63;;;3.54;100.00
27294;BME280;14785;52.556;13.430;2022-12-01T06:51:57;102075.69;;;3.30;100.00
27294;BME280;14785;52.556;13.430;2022-12-01T06:54:23;102078.16;;;3.84;100.00
27294;BME280;14785;52.556;13.430;2022-12-01T06:56:48;102089.38;;;3.88;100.00
27294;BME280;14785;52.556;13.430;2022-12-01T06:59:13;102078.59;;;4.10;100.00
27294;BME280;14785;52.556;13.430;2022-12-01T07:01:39;102087.13;;;3.80;100.00
27294;BME280;14785;52.556;13.430;2022-12-01T07:04:04;102080.47;;;3.73;100.00
27294;BME280;14785;52.556;13.430;2022-12-01T07:06:30;102080.78;;;3.67;100.00
27294;BME280;14785;52.556;13.430;2022-12-01T07:08:56;102097.22;;;3.72;100.00
27294;BME280;14785;52.556;13.430;2022-12-01T07:11:21;102086.97;;;3.49;100.00
27294;BME280;14785;52.556;13.430;2022-12-01T07:13:47;102084.38;;;3.66;100.00
27294;BME280;14785;52.556;13.430;2022-12-01T07:16:15;102086.81;;;3.86;100.00
27294;BME280;14785;52.556;13.430;2022-12-01T07:18:40;102080.09;;;4.14;100.00
27294;BME280;14785;52.556;13.430;2022-12-01T07:21:11;102082.50;;;4.18;100.00
27294;BME280;14785;52.556;13.430;2022-12-01T07:23:38;102085.00;;;3.54;100.00
27294;BME280;14785;52.556;13.430;2022-12-01T07:26:06;102086.38;;;3.61;100.00
27294;BME280;14785;52.556;13.430;2022-12-01T07:28:32;102086.03;;;3.50;100.00
27294;BME280;14785;52.556;13.430;2022-12-01T07:31:03;102085.91;;;3.70;100.00
27294;BME280;14785;52.556;13.430;2022-12-01T07:33:29;102082.66;;;4.15;100.00
27294;BME280;14785;52.556;13.430;2022-12-01T07:35:55;102077.81;;;4.56;100.00
27294;BME280;14785;52.556;13.430;2022-12-01T07:38:21;102078.44;;;4.28;100.00
27294;BME280;14785;52.556;13.430;2022-12-01T07:40:48;102085.69;;;4.08;100.00
27294;BME280;14785;52.556;13.430;2022-12-01T07:43:13;102081.72;;;4.49;100.00
27294;BME280;14785;52.556;13.430;2022-12-01T07:45:38;102080.88;;;4.64;100.00
27294;BME280;14785;52.556;13.430;2022-12-01T07:48:05;102089.03;;;4.75;100.00
27294;BME280;14785;52.556;13.430;2022-12-01T07:50:31;102082.97;;;4.42;100.00
27294;BME280;14785;52.556;13.430;2022-12-01T07:52:56;102089.22;;;4.72;100.00
27294;BME280;14785;52.556;13.430;2022-12-01T07:55:21;102090.41;;;4.97;100.00
27294;BME280;14785;52.556;13.430;2022-12-01T07:57:47;102097.13;;;4.24;100.00
27294;BME280;14785;52.556;13.430;2022-12-01T08:00:13;102095.34;;;3.74;100.00
27294;BME280;14785;52.556;13.430;2022-12-01T08:02:38;102093.66;;;3.73;100.00
27294;BME280;14785;52.556;13.430;2022-12-01T08:05:04;102093.91;;;4.19;100.00
27294;BME280;14785;52.556;13.430;2022-12-01T08:07:30;102095.25;;;4.26;100.00
27294;BME280;14785;52.556;13.430;2022-12-01T08:09:55;102100.22;;;4.32;100.00
27294;BME280;14785;52.556;13.430;2022-12-01T08:12:21;102094.13;;;4.47;100.00
27294;BME280;14785;52.556;13.430;2022-12-01T08:14:46;102102.06;;;4.30;100.00
27294;BME280;14785;52.556;13.430;2022-12-01T08:17:12;102103.84;;;3.97;100.00
27294;BME280;14785;52.556;13.430;2022-12-01T08:19:37;102101.94;;;4.48;100.00
27294;BME280;14785;52.556;13.430;2022-12-01T08:22:03;102111.84;;;4.76;100.00
27294;BME280;14785;52.556;13.430;2022-12-01T08:24:29;102106.19;;;4.51;100.00
27294;BME280;14785;52.556;13.430;2022-12-01T08:26:55;102105.97;;;4.71;100.00
27294;BME280;14785;52.556;13.430;2022-12-01T08:29:22;102103.00;;;4.92;100.00
27294;BME280;14785;52.556;13.430;2022-12-01T08:31:47;102106.81;;;4.87;100.00
27294;BME280;14785;52.556;13.430;2022-12-01T08:34:13;102103.25;;;5.19;100.00
27294;BME280;14785;52.556;13.430;2022-12-01T08:36:40;102107.91;;;5.14;100.00
27294;BME280;14785;52.556;13.430;2022-12-01T08:39:07;102107.00;;;4.99;100.00
27294;BME280;14785;52.556;13.430;2022-12-01T08:41:33;102103.88;;;5.38;100.00
27294;BME280;14785;52.556;13.430;2022-12-01T08:43:58;102104.63;;;4.95;100.00
27294;BME280;14785;52.556;13.430;2022-12-01T08:46:30;102101.59;;;5.16;100.00
27294;BME280;14785;52.556;13.430;2022-12-01T08:48:56;102106.47;;;4.93;100.00
27294;BME280;14785;52.556;13.430;2022-12-01T08:51:21;102096.78;;;4.93;100.00
27294;BME280;14785;52.556;13.430;2022-12-01T08:53:48;102102.72;;;4.66;100.00
27294;BME280;14785;52.556;13.430;2022-12-01T08:56:18;102101.31;;;4.76;100.00
27294;BME280;14785;52.556;13.430;2022-12-01T08:58:45;102102.22;;;4.75;100.00
27294;BME280;14785;52.556;13.430;2022-12-01T09:01:13;102111.00;;;4.91;100.00
27294;BME280;14785;52.556;13.430;2022-12-01T09:03:42;102102.63;;;4.52;100.00
27294;BME280;14785;52.556;13.430;2022-12-01T09:06:14;102111.19;;;4.40;100.00
27294;BME280;14785;52.556;13.430;2022-12-01T09:08:40;102112.31;;;4.19;100.00
27294;BME280;14785;52.556;13.430;2022-12-01T09:11:16;102119.34;;;4.51;100.00
27294;BME280;14785;52.556;13.430;2022-12-01T09:13:44;102118.09;;;4.25;100.00
27294;BME280;14785;52.556;13.430;2022-12-01T09:16:11;102120.72;;;4.10;100.00
27294;BME280;14785;52.556;13.430;2022-12-01T09:18:37;102117.22;;;4.42;100.00
27294;BME280;14785;52.556;13.430;2022-12-01T09:21:17;102110.81;;;3.97;100.00
27294;BME280;14785;52.556;13.430;2022-12-01T09:23:43;102112.81;;;3.92;100.00
27294;BME280;14785;52.556;13.430;2022-12-01T09:26:10;102116.41;;;3.57;100.00
27294;BME280;14785;52.556;13.430;2022-12-01T09:28:36;102113.75;;;3.74;100.00
27294;BME280;14785;52.556;13.430;2022-12-01T09:31:03;102110.03;;;3.44;100.00
27294;BME280;14785;52.556;13.430;2022-12-01T09:33:29;102114.22;;;3.65;100.00
27294;BME280;14785;52.556;13.430;2022-12-01T09:35:59;102110.66;;;3.83;100.00
27294;BME280;14785;52.556;13.430;2022-12-01T09:38:25;102111.59;;;3.82;100.00
27294;BME280;14785;52.556;13.430;2022-12-01T09:40:51;102098.13;;;4.06;100.00
27294;BME280;14785;52.556;13.430;2022-12-01T09:43:20;102104.91;;;4.10;100.00
27294;BME280;14785;52.556;13.430;2022-12-01T09:46:01;102105.34;;;4.66;100.00
27294;BME280;14785;52.556;13.430;2022-12-01T09:48:31;102095.97;;;4.45;100.00
27294;BME280;14785;52.556;13.430;2022-12-01T09:50:58;102106.69;;;4.42;100.00
27294;BME280;14785;52.556;13.430;2022-12-01T09:53:25;102101.25;;;4.45;100.00
27294;BME280;14785;52.556;13.430;2022-12-01T09:55:53;102101.63;;;4.70;100.00
27294;BME280;14785;52.556;13.430;2022-12-01T09:58:23;102097.03;;;4.58;100.00
27294;BME280;14785;52.556;13.430;2022-12-01T10:00:51;102089.97;;;4.43;100.00
27294;BME280;14785;52.556;13.430;2022-12-01T10:03:37;102098.50;;;4.31;100.00
27294;BME280;14785;52.556;13.430;2022-12-01T10:06:15;102094.31;;;4.27;100.00
27294;BME280;14785;52.556;13.430;2022-12-01T10:08:59;102097.75;;;4.12;100.00
27294;BME280;14785;52.556;13.430;2022-12-01T10:11:36;102092.59;;;4.43;100.00
27294;BME280;14785;52.556;13.430;2022-12-01T10:14:04;102095.25;;;5.05;100.00
27294;BME280;14785;52.556;13.430;2022-12-01T10:16:47;102087.28;;;5.36;100.00
27294;BME280;14785;52.556;13.430;2022-12-01T10:19:24;102096.72;;;5.69;100.00
27294;BME280;14785;52.556;13.430;2022-12-01T10:22:42;102087.66;;;5.89;100.00
27294;BME280;14785;52.556;13.430;2022-12-01T10:24:54;102076.63;;;4.46;100.00
27294;BME280;14785;52.556;13.430;2022-12-01T10:30:51;102085.72;;;5.02;100.00
27294;BME280;14785;52.556;13.430;2022-12-01T10:33:25;102085.75;;;4.39;100.00
27294;BME280;14785;52.556;13.430;2022-12-01T10:35:54;102078.97;;;5.12;100.00
27294;BME280;14785;52.556;13.430;2022-12-01T10:38:35;102080.13;;;4.62;100.00
27294;BME280;14785;52.556;13.430;2022-12-01T10:41:04;102083.25;;;4.84;100.00
27294;BME280;14785;52.556;13.430;2022-12-01T10:43:38;102084.06;;;5.31;100.00
27294;BME280;14785;52.556;13.430;2022-12-01T10:46:19;102079.69;;;5.16;100.00
27294;BME280;14785;52.556;13.430;2022-12-01T10:48:56;102076.63;;;4.77;100.00
27294;BME280;14785;52.556;13.430;2022-12-01T10:51:23;102070.53;;;4.61;100.00
27294;BME280;14785;52.556;13.430;2022-12-01T10:53:56;102080.88;;;4.95;100.00
27294;BME280;14785;52.556;13.430;2022-12-01T10:56:22;102080.13;;;5.38;100.00
27294;BME280;14785;52.556;13.430;2022-12-01T10:58:51;102073.34;;;5.34;100.00
27294;BME280;14785;52.556;13.430;2022-12-01T11:01:30;102064.91;;;5.27;100.00
27294;BME280;14785;52.556;13.430;2022-12-01T11:04:05;102060.81;;;5.67;100.00
27294;BME280;14785;52.556;13.430;2022-12-01T11:06:31;102060.91;;;5.65;100.00
27294;BME280;14785;52.556;13.430;2022-12-01T11:09:06;102063.94;;;5.44;100.00
27294;BME280;14785;52.556;13.430;2022-12-01T11:11:40;102052.63;;;5.42;100.00
27294;BME280;14785;52.556;13.430;2022-12-01T11:14:31;102063.34;;;5.09;100.00
27294;BME280;14785;52.556;13.430;2022-12-01T11:17:34;102057.88;;;5.12;100.00
27294;BME280;14785;52.556;13.430;2022-12-01T11:20:23;102056.91;;;4.99;100.00
27294;BME280;14785;52.556;13.430;2022-12-01T11:28:25;102054.19;;;4.70;100.00
27294;BME280;14785;52.556;13.430;2022-12-01T11:30:56;102056.97;;;4.03;100.00
27294;BME280;14785;52.556;13.430;2022-12-01T11:33:22;102053.50;;;4.51;100.00
27294;BME280;14785;52.556;13.430;2022-12-01T11:35:48;102057.06;;;5.12;100.00
27294;BME280;14785;52.556;13.430;2022-12-01T11:38:20;102051.97;;;5.09;100.00
27294;BME280;14785;52.556;13.430;2022-12-01T11:40:48;102055.03;;;4.70;100.00
27294;BME280;14785;52.556;13.430;2022-12-01T11:45:49;102046.63;;;5.83;100.00
27294;BME280;14785;52.556;13.430;2022-12-01T11:48:24;102052.38;;;5.90;100.00
27294;BME280;14785;52.556;13.430;2022-12-01T11:53:42;102053.75;;;5.38;100.00
27294;BME280;14785;52.556;13.430;2022-12-01T11:58:52;102047.97;;;5.61;100.00
27294;BME280;14785;52.556;13.430;2022-12-01T12:01:31;102054.19;;;5.60;100.00
27294;BME280;14785;52.556;13.430;2022-12-01T12:07:21;102046.00;;;5.05;100.00
27294;BME280;14785;52.556;13.430;2022-12-01T12:13:11;102041.91;;;4.22;100.00
27294;BME280;14785;52.556;13.430;2022-12-01T12:16:05;102043.97;;;4.95;100.00
27294;BME280;14785;52.556;13.430;2022-12-01T12:24:16;102043.81;;;4.98;100.00
27294;BME280;14785;52.556;13.430;2022-12-01T12:37:58;102045.94;;;5.21;100.00
27294;BME280;14785;52.556;13.430;2022-12-01T12:49:13;102046.44;;;5.43;100.00
27294;BME280;14785;52.556;13.430;2022-12-01T12:52:47;102045.00;;;4.77;100.00
27294;BME280;14785;52.556;13.430;2022-12-01T12:55:44;102034.97;;;4.37;100.00
27294;BME280;14785;52.556;13.430;2022-12-01T12:57:56;102044.66;;;4.83;100.00
27294;BME280;14785;52.556;13.430;2022-12-01T13:00:25;102039.47;;;4.81;100.00
27294;BME280;14785;52.556;13.430;2022-12-01T13:03:02;102042.09;;;4.66;100.00
27294;BME280;14785;52.556;13.430;2022-12-01T13:06:04;102035.25;;;4.00;100.00
27294;BME280;14785;52.556;13.430;2022-12-01T13:14:25;102039.88;;;5.64;100.00
27294;BME280;14785;52.556;13.430;2022-12-01T13:16:56;102040.06;;;5.31;100.00
27294;BME280;14785;52.556;13.430;2022-12-01T13:19:29;102040.84;;;5.18;100.00
27294;BME280;14785;52.556;13.430;2022-12-01T13:21:56;102041.31;;;5.10;100.00
27294;BME280;14785;52.556;13.430;2022-12-01T13:24:24;102047.25;;;5.43;100.00
27294;BME280;14785;52.556;13.430;2022-12-01T13:26:59;102044.53;;;5.45;100.00
27294;BME280;14785;52.556;13.430;2022-12-01T13:29:32;102045.16;;;5.34;100.00
27294;BME280;14785;52.556;13.430;2022-12-01T13:31:59;102046.00;;;4.90;100.00
27294;BME280;14785;52.556;13.430;2022-12-01T13:34:36;102043.41;;;4.59;100.00
27294;BME280;14785;52.556;13.430;2022-12-01T13:37:03;102034.63;;;4.43;100.00
27294;BME280;14785;52.556;13.430;2022-12-01T13:39:33;102041.06;;;4.84;100.00
27294;BME280;14785;52.556;13.430;2022-12-01T13:42:05;102043.56;;;5.32;100.00
27294;BME280;14785;52.556;13.430;2022-12-01T13:44:43;102031.47;;;4.83;100.00
27294;BME280;14785;52.556;13.430;2022-12-01T13:49:49;102039.22;;;5.01;100.00
27294;BME280;14785;52.556;13.430;2022-12-01T13:55:26;102037.28;;;5.19;100.00
27294;BME280;14785;52.556;13.430;2022-12-01T13:58:16;102040.03;;;5.17;100.00
27294;BME280;14785;52.556;13.430;2022-12-01T14:00:37;102029.38;;;4.74;100.00
27294;BME280;14785;52.556;13.430;2022-12-01T14:03:36;102030.03;;;4.62;100.00
27294;BME280;14785;52.556;13.430;2022-12-01T14:06:19;102027.56;;;4.90;100.00
27294;BME280;14785;52.556;13.430;2022-12-01T14:08:46;102026.03;;;5.31;100.00
27294;BME280;14785;52.556;13.430;2022-12-01T14:11:29;102031.47;;;4.83;100.00
27294;BME280;14785;52.556;13.430;2022-12-01T14:14:17;102029.03;;;4.49;100.00
27294;BME280;14785;52.556;13.430;2022-12-01T14:17:03;102026.72;;;4.43;100.00
27294;BME280;14785;52.556;13.430;2022-12-01T14:19:41;102024.00;;;4.60;100.00
27294;BME280;14785;52.556;13.430;2022-12-01T14:25:00;102028.84;;;4.83;100.00
27294;BME280;14785;52.556;13.430;2022-12-01T14:36:16;102024.59;;;5.55;100.00
27294;BME280;14785;52.556;13.430;2022-12-01T14:38:45;102024.88;;;5.50;100.00